Latest Weather Observations for Portland Airport

IDV60801

Issued at 9:35 pm EST Thursday 21 August 2014 (issued every 30 minutes, with the page automatically refreshed every 10 minutes)

About weather observations | Map of weather stations | Latest weather observations for VIC | Other Formats
Station Details ID: 090171 Name: CASHMORE AIRPORT Lat: -38.31 Lon: 141.47 Height: 80.9 m
Data from the previous 72 hours. | See also: Recent months at Portland Airport
Date/Time
EST
Temp
°C
App
Temp
°C
Dew
Point
Rel
Hum
%
Delta-T
°C
Wind Press
QNH
hPa
Press
MSL
hPa
Rain
since 9 am
mm
Dir
 
Spd
km/h
Gust
km/h
Spd
kts
Gust
kts
21/09:30pm 6.0 3.7 4.6 91 0.6 ENE 6 7 3 4 1028.1 1028.2 0.0
21/09:00pm 6.7 4.4 5.0 89 0.7 ENE 6 6 3 3 1028.0 1028.1 0.0
21/08:30pm 8.2 6.0 5.5 83 1.2 ENE 6 7 3 4 1027.8 1027.9 0.0
21/08:00pm 9.1 7.1 6.2 82 1.3 ENE 6 7 3 4 1027.6 1027.7 0.0
21/07:30pm 10.0 7.5 6.7 80 1.6 ENE 9 11 5 6 1027.6 1027.7 0.0
21/07:00pm 10.7 8.8 7.4 80 1.6 ENE 7 11 4 6 1027.6 1027.7 0.0
21/06:30pm 10.6 8.7 7.5 81 1.5 ENE 7 9 4 5 1027.4 1027.5 0.0
21/06:00pm 11.0 9.0 7.3 78 1.8 ENE 7 9 4 5 1027.1 1027.2 0.0
21/05:30pm 11.6 9.2 7.1 74 2.2 E 9 11 5 6 1026.9 1027.0 0.0
21/05:00pm 12.0 9.7 7.3 73 2.3 E 9 13 5 7 1026.8 1026.9 0.0
21/04:30pm 12.1 9.7 7.2 72 2.4 E 9 13 5 7 1026.6 1026.7 0.0
21/04:00pm 11.9 9.1 7.0 72 2.3 E 11 17 6 9 1026.4 1026.5 0.0
21/03:30pm 12.3 9.5 7.0 70 2.6 E 11 17 6 9 1026.4 1026.5 0.0
21/03:00pm 12.6 10.2 7.1 69 2.6 ENE 9 15 5 8 1026.5 1026.6 0.0
21/02:30pm 12.5 9.6 6.5 67 2.9 ENE 11 15 6 8 1026.5 1026.6 0.0
21/02:00pm 12.5 9.3 5.2 61 3.4 E 11 15 6 8 1026.6 1026.7 0.0
21/01:30pm 13.8 11.0 6.9 63 3.4 E 11 19 6 10 1027.0 1027.1 0.0
21/01:00pm 13.2 10.2 5.9 61 3.4 ENE 11 19 6 10 1027.4 1027.5 0.0
21/12:30pm 13.3 10.8 6.6 64 3.2 E 9 19 5 10 1027.7 1027.8 0.0
21/12:00pm 12.5 10.0 6.5 67 2.8 ESE 9 15 5 8 1028.2 1028.3 0.0
21/11:30am 13.3 11.0 7.5 68 2.8 ENE 9 13 5 7 1028.4 1028.5 0.0
21/11:00am 12.0 9.5 6.5 69 2.6 ENE 9 13 5 7 1028.8 1028.9 0.0
21/10:30am 11.3 8.7 6.0 70 2.5 ENE 9 15 5 8 1028.9 1029.0 0.0
21/10:00am 11.1 8.7 6.8 75 2.0 NNE 9 11 5 6 1029.0 1029.1 0.0
21/09:30am 10.7 8.6 6.8 77 1.8 NNE 7 11 4 6 1029.0 1029.1 0.0
21/09:00am 9.9 8.1 7.2 83 1.3 N 6 7 3 4 1029.0 1029.1 0.4
21/08:30am 8.5 7.0 7.0 90 0.7 N 4 7 2 4 1028.9 1029.0 0.4
21/08:00am 7.6 5.7 6.7 94 0.4 WSW 6 7 3 4 1028.9 1029.0 0.4
21/07:30am 7.1 4.9 6.0 93 0.5 WSW 7 7 4 4 1028.6 1028.7 0.4
21/07:00am 7.8 7.0 6.7 93 0.5 CALM 0 0 0 0 1028.3 1028.4 0.4
21/06:30am 7.9 6.8 6.7 92 0.6 WSW 2 6 1 3 1028.1 1028.2 0.4
21/06:00am 7.9 5.8 6.8 93 0.5 NNW 7 9 4 5 1028.0 1028.1 0.4
21/05:30am 7.9 6.1 7.0 94 0.4 NNE 6 9 3 5 1028.1 1028.2 0.4
21/05:00am 7.9 7.2 7.1 95 0.4 CALM 0 0 0 0 1028.1 1028.2 0.4
21/04:30am 8.0 7.4 7.2 95 0.4 CALM 0 0 0 0 1028.1 1028.2 0.4
21/04:00am 7.8 7.1 6.9 94 0.4 CALM 0 0 0 0 1028.1 1028.2 0.4
21/03:50am 7.9 7.2 7.0 94 0.4 CALM 0 0 0 0 1028.1 1028.2 0.4
21/03:32am 8.2 6.8 7.3 94 0.4 NNE 4 9 2 5 1028.2 1028.3 0.4
21/03:30am 8.2 7.2 7.3 94 0.4 NNE 2 7 1 4 1028.2 1028.3 0.4
21/03:07am 7.9 5.5 7.0 94 0.4 N 9 11 5 6 1028.0 1028.1 0.4
21/03:00am 7.9 5.5 7.0 94 0.4 NNE 9 11 5 6 1028.1 1028.2 0.4
21/02:57am 8.0 5.6 7.1 94 0.4 NNE 9 11 5 6 1028.2 1028.3 0.4
21/02:30am 8.0 6.0 7.2 95 0.4 NNE 7 9 4 5 1028.3 1028.4 0.4
21/02:00am 7.5 6.7 6.4 93 0.5 CALM 0 0 0 0 1028.4 1028.5 0.4
21/01:30am 8.1 7.4 6.9 92 0.6 CALM 0 0 0 0 1028.5 1028.6 0.4
21/01:21am 8.5 7.8 7.1 91 0.7 CALM 0 0 0 0 1028.4 1028.5 0.4
21/01:00am 8.8 7.9 7.6 92 0.6 ENE 2 7 1 4 1028.6 1028.7 0.4
21/12:54am 8.8 7.1 7.6 92 0.6 NE 6 7 3 4 1028.6 1028.7 0.4
21/12:30am 8.5 6.6 6.8 89 0.8 NE 6 9 3 5 1028.5 1028.6 0.4
21/12:00am 9.6 7.7 7.5 87 1.0 NE 7 9 4 5 1028.5 1028.6 0.4
 
Date/Time
EST
Temp
°C
App
Temp
°C
Dew
Point
Rel
Hum
%
Delta-T
°C
Wind Press
QNH
hPa
Press
MSL
hPa
Rain
since 9 am
mm
Dir
 
Spd
km/h
Gust
km/h
Spd
kts
Gust
kts
20/11:30pm 9.4 8.9 7.7 89 0.8 CALM 0 0 0 0 1028.4 1028.5 0.4
20/11:00pm 9.8 8.1 7.7 87 1.0 SE 6 9 3 5 1028.5 1028.6 0.4
20/10:30pm 9.5 7.0 8.1 91 0.7 SE 11 15 6 8 1028.6 1028.7 0.4
20/10:00pm 9.4 7.2 8.0 91 0.7 SE 9 13 5 7 1028.6 1028.7 0.4
20/09:51pm 9.2 7.0 8.0 92 0.6 ESE 9 15 5 8 1028.7 1028.8 0.4
20/09:30pm 9.1 7.3 7.9 92 0.6 ESE 7 15 4 8 1028.7 1028.8 0.2
20/09:27pm 9.1 7.3 7.9 92 0.6 ESE 7 13 4 7 1028.7 1028.8 0.2
20/09:00pm 9.0 7.4 7.9 93 0.5 ESE 6 9 3 5 1028.6 1028.7 0.2
20/08:30pm 8.5 7.9 7.4 93 0.5 CALM 0 0 0 0 1028.6 1028.7 0.2
20/08:00pm 9.1 8.6 7.7 91 0.7 CALM 0 0 0 0 1028.6 1028.7 0.2
20/07:30pm 9.1 7.4 7.5 90 0.8 ESE 6 9 3 5 1028.7 1028.8 0.2
20/07:00pm 9.4 8.9 7.8 90 0.8 CALM 0 0 0 0 1028.7 1028.8 0.2
20/06:30pm 9.6 7.8 7.9 89 0.8 SE 7 11 4 6 1028.6 1028.7 0.2
20/06:28pm 9.7 7.5 8.0 89 0.8 SE 9 11 5 6 1028.6 1028.7 0.2
20/06:07pm 10.4 8.2 7.8 84 1.3 SSE 9 19 5 10 1028.5 1028.6 0.0
20/06:00pm 10.4 8.5 7.5 82 1.4 SSE 7 9 4 5 1028.4 1028.5 0.0
20/05:30pm 10.7 8.4 7.6 81 1.5 S 9 11 5 6 1028.2 1028.3 0.0
20/05:00pm 10.9 7.9 7.6 80 1.6 S 13 20 7 11 1028.1 1028.2 0.0
20/04:30pm 11.3 8.3 5.8 69 2.6 SE 11 17 6 9 1027.9 1028.0 0.0
20/04:00pm 11.9 8.5 5.8 66 2.8 SE 13 19 7 10 1027.8 1027.9 0.0
20/03:30pm 11.9 8.3 4.9 62 3.2 SE 13 20 7 11 1027.7 1027.8 0.0
20/03:00pm 12.8 9.0 5.9 63 3.2 ESE 15 22 8 12 1027.5 1027.6 0.0
20/02:30pm 12.6 9.0 5.1 60 3.5 SE 13 19 7 10 1027.5 1027.6 0.0
20/02:00pm 12.7 9.5 5.1 60 3.5 ESE 11 20 6 11 1027.4 1027.5 0.0
20/01:30pm 12.9 9.4 5.6 61 3.4 ESE 13 20 7 11 1027.6 1027.7 0.0
20/01:00pm 13.0 9.5 5.4 60 3.5 ESE 13 19 7 10 1027.8 1027.9 0.0
20/12:30pm 12.3 8.7 5.2 62 3.3 SE 13 19 7 10 1028.1 1028.2 0.0
20/12:00pm 11.4 7.8 5.1 65 2.9 SSE 13 20 7 11 1028.4 1028.5 0.0
20/11:30am 12.6 8.8 5.8 63 3.2 SE 15 20 8 11 1028.5 1028.6 0.0
20/11:00am 13.0 9.2 5.9 62 3.3 SSE 15 20 8 11 1028.5 1028.6 0.0
20/10:30am 12.8 9.5 6.2 64 3.1 SSE 13 20 7 11 1028.4 1028.5 0.0
20/10:00am 11.1 7.3 5.6 69 2.5 SSE 15 22 8 12 1028.5 1028.6 0.0
20/09:30am 11.6 8.4 5.3 65 2.9 SSE 11 19 6 10 1028.2 1028.3 0.0
20/09:00am 9.8 9.0 6.3 79 1.6 CALM 0 4 0 2 1028.2 1028.3 0.0
20/08:30am 9.3 7.0 5.7 78 1.6 SSE 7 13 4 7 1028.0 1028.1 0.0
20/08:00am 8.4 7.3 5.0 79 1.5 CALM 0 4 0 2 1027.7 1027.8 0.0
20/07:30am 8.7 6.3 4.5 75 1.9 SSE 6 9 3 5 1027.4 1027.5 0.0
20/07:00am 9.5 6.6 4.7 72 2.1 SE 9 11 5 6 1027.1 1027.2 0.0
20/06:30am 9.7 6.8 4.9 72 2.2 SE 9 15 5 8 1026.8 1026.9 0.0
20/06:00am 9.6 6.9 5.6 76 1.8 SE 9 13 5 7 1026.6 1026.7 0.0
20/05:30am 8.8 6.9 6.6 86 1.0 SSE 6 9 3 5 1026.6 1026.7 0.0
20/05:00am 8.4 7.7 7.0 91 0.7 CALM 0 0 0 0 1026.4 1026.5 0.0
20/04:30am 8.4 7.3 7.0 91 0.7 E 2 6 1 3 1026.3 1026.4 0.0
20/04:00am 8.3 7.6 7.1 92 0.6 CALM 0 0 0 0 1026.4 1026.5 0.0
20/03:30am 8.2 7.5 7.0 92 0.6 CALM 0 0 0 0 1026.4 1026.5 0.0
20/03:00am 8.0 6.1 6.9 93 0.5 SE 6 7 3 4 1026.6 1026.7 0.0
20/02:30am 7.8 7.0 6.7 93 0.5 CALM 0 0 0 0 1026.9 1027.0 0.0
20/02:00am 7.8 7.0 6.4 91 0.6 CALM 0 0 0 0 1026.8 1026.9 0.0
20/01:30am 8.4 7.8 7.2 92 0.6 CALM 0 0 0 0 1027.0 1027.1 0.0
20/01:00am 8.5 7.9 7.3 92 0.6 CALM 0 0 0 0 1027.1 1027.2 0.0
20/12:30am 8.7 6.9 7.3 91 0.7 ESE 6 7 3 4 1027.1 1027.2 0.0
20/12:00am 8.8 5.7 7.1 89 0.8 SE 13 17 7 9 1027.1 1027.2 0.0
 
Date/Time
EST
Temp
°C
App
Temp
°C
Dew
Point
Rel
Hum
%
Delta-T
°C
Wind Press
QNH
hPa
Press
MSL
hPa
Rain
since 9 am
mm
Dir
 
Spd
km/h
Gust
km/h
Spd
kts
Gust
kts
19/11:30pm 8.0 7.3 7.1 94 0.4 CALM 0 0 0 0 1027.0 1027.1 0.0
19/11:00pm 7.9 6.1 7.1 95 0.4 W 6 7 3 4 1027.2 1027.3 0.0
19/10:30pm 7.6 6.5 6.7 94 0.4 W 2 6 1 3 1027.3 1027.4 0.0
19/10:00pm 8.0 6.9 6.9 93 0.5 SSE 2 6 1 3 1027.3 1027.4 0.0
19/09:30pm 8.7 8.1 7.3 91 0.7 CALM 0 0 0 0 1027.3 1027.4 0.0
19/09:25pm 8.7 8.1 7.5 92 0.6 CALM 0 0 0 0 1027.3 1027.4 0.0
19/09:14pm 8.8 6.5 7.6 92 0.6 SSE 9 13 5 7 1027.4 1027.5 0.0
19/09:00pm 8.8 6.5 7.6 92 0.6 SSE 9 13 5 7 1027.4 1027.5 0.0
19/08:30pm 8.7 7.4 7.5 92 0.6 S 4 7 2 4 1027.1 1027.2 0.0
19/08:00pm 8.3 6.3 7.1 92 0.6 WSW 7 7 4 4 1027.0 1027.1 0.0
19/07:30pm 8.2 6.7 6.7 90 0.7 SW 4 7 2 4 1027.0 1027.1 0.0
19/07:00pm 8.9 6.8 6.7 86 1.0 SW 7 9 4 5 1026.8 1026.9 0.0
19/06:30pm 9.6 7.1 6.7 82 1.4 SW 9 13 5 7 1026.5 1026.6 0.0
19/06:00pm 10.4 8.2 6.2 75 1.9 SSW 7 11 4 6 1026.2 1026.3 0.0
19/05:30pm 10.8 8.5 5.6 70 2.4 SSE 7 11 4 6 1026.0 1026.1 0.0
19/05:00pm 11.1 8.6 4.8 65 2.8 SSE 7 11 4 6 1025.8 1025.9 0.0
19/04:30pm 11.4 8.7 5.7 68 2.7 S 9 13 5 7 1025.7 1025.8 0.0
19/04:00pm 11.9 9.1 5.3 64 3.0 S 9 15 5 8 1025.6 1025.7 0.0
19/03:30pm 11.8 8.9 4.8 62 3.2 SE 9 13 5 7 1025.7 1025.8 0.0
19/03:00pm 11.8 8.8 4.3 60 3.4 ESE 9 15 5 8 1025.7 1025.8 0.0
19/02:30pm 12.1 9.3 5.0 62 3.3 ESE 9 15 5 8 1025.5 1025.6 0.0
19/02:00pm 12.1 8.8 4.8 61 3.3 SE 11 19 6 10 1025.5 1025.6 0.0
19/01:30pm 12.1 8.4 4.3 59 3.5 S 13 20 7 11 1025.7 1025.8 0.0
19/01:00pm 12.3 8.4 3.3 54 4.0 ESE 13 22 7 12 1026.1 1026.2 0.0
19/12:30pm 12.4 9.0 3.9 56 3.8 SE 11 20 6 11 1026.4 1026.5 0.0
19/12:00pm 12.0 8.2 4.0 58 3.6 SSE 13 22 7 12 1026.8 1026.9 0.0
19/11:30am 11.5 8.0 3.3 57 3.6 SSE 11 19 6 10 1026.9 1027.0 0.0
19/11:00am 11.4 7.3 4.2 61 3.2 S 15 20 8 11 1027.0 1027.1 0.0
19/10:30am 11.4 8.1 4.6 63 3.1 SSE 11 19 6 10 1026.9 1027.0 0.0
19/10:00am 11.0 8.1 4.7 65 2.8 SSE 9 13 5 7 1026.8 1026.9 0.0
19/09:30am 10.5 6.8 4.4 66 2.7 SSE 13 17 7 9 1026.8 1026.9 0.0
19/09:00am 10.3 7.1 4.9 69 2.4 SSE 11 17 6 9 1026.6 1026.7 0.0
19/08:30am 10.0 6.7 4.6 69 2.4 SSE 11 17 6 9 1026.4 1026.5 0.0
19/08:00am 9.8 6.9 4.8 71 2.2 SSE 9 15 5 8 1026.1 1026.2 0.0
19/07:30am 9.6 7.1 5.0 73 2.1 SSE 7 11 4 6 1025.7 1025.8 0.0
19/07:00am 9.3 7.1 5.1 75 1.9 SSE 6 7 3 4 1025.6 1025.7 0.0
19/06:30am 9.6 6.8 5.2 74 2.0 SSE 9 13 5 7 1025.3 1025.4 0.0
19/06:00am 9.6 6.8 5.0 73 2.1 SE 9 13 5 7 1025.3 1025.4 0.0
19/05:30am 9.7 6.9 5.1 73 2.1 SE 9 15 5 8 1025.0 1025.2 0.0
19/05:00am 9.4 6.4 5.8 78 1.6 SE 11 15 6 8 1024.9 1025.1 0.0
19/04:30am 9.1 6.9 6.0 81 1.4 SE 7 11 4 6 1024.8 1025.0 0.0
19/04:00am 9.4 6.5 6.5 82 1.3 SE 11 20 6 11 1024.7 1024.9 0.0
19/03:44am 9.2 6.6 6.1 81 1.4 SSE 9 15 5 8 1024.8 1025.0 0.0
19/03:31am 9.3 6.0 6.4 82 1.3 SSE 13 19 7 10 1024.8 1025.0 0.0
19/03:30am 9.3 6.0 6.4 82 1.3 SSE 13 19 7 10 1024.8 1025.0 0.0
19/03:00am 9.5 6.9 5.9 78 1.6 SE 9 13 5 7 1024.9 1025.1 0.0
19/02:30am 9.8 6.6 5.2 73 2.1 S 11 17 6 9 1025.0 1025.2 0.0
19/02:00am 9.6 6.7 4.8 72 2.1 S 9 15 5 8 1025.2 1025.3 0.0
19/01:30am 8.5 6.2 5.6 82 1.3 S 7 11 4 6 1025.2 1025.3 0.0
19/01:00am 8.3 5.8 4.7 78 1.6 SSE 7 11 4 6 1025.3 1025.4 0.0
19/12:30am 9.1 6.4 5.5 78 1.6 SSE 9 13 5 7 1025.4 1025.5 0.0
19/12:00am 9.3 7.1 6.2 81 1.4 SE 7 13 4 7 1025.5 1025.6 0.0
 
Date/Time
EST
Temp
°C
App
Temp
°C
Dew
Point
Rel
Hum
%
Delta-T
°C
Wind Press
QNH
hPa
Press
MSL
hPa
Rain
since 9 am
mm
Dir
 
Spd
km/h
Gust
km/h
Spd
kts
Gust
kts
18/11:30pm 9.5 6.9 6.2 80 1.5 ESE 9 15 5 8 1025.5 1025.6 0.0
18/11:00pm 9.6 7.3 5.8 77 1.7 SE 7 11 4 6 1025.6 1025.7 0.0
18/10:30pm 9.7 7.4 5.5 75 1.9 SSE 7 13 4 7 1025.6 1025.7 0.0
18/10:00pm 10.0 6.4 5.2 72 2.2 SSE 13 24 7 13 1025.6 1025.7 0.0

Other Formats:

Comma delimited format used in spreadsheet applications
http://www.bom.gov.au/fwo/IDV60801/IDV60801.94828.axf

JavaScript Object Notation format (JSON) in row-major order
http://www.bom.gov.au/fwo/IDV60801/IDV60801.94828.json